Time;durP1;ratioP1;P1;durP2;ratioP2;P2;SDS_P1;SDS_P2;PMS_P1;PMS_P2;Temp;Humidity;BMP_temperature;BMP_pressure;BME280_temperature;BME280_humidity;BME280_pressure;Samples;Min_cycle;Max_cycle;Signal;HPM_P1;HPM_P2
2024/02/23 00:01:32;;;;;;;0.77;0.50;;;6.50;79.90;;;;;;5053417;28;20450;-74
2024/02/23 00:03:57;;;;;;;0.87;0.60;;;6.50;79.90;;;;;;5047791;28;20201;-74
2024/02/23 00:06:27;;;;;;;0.90;0.60;;;6.60;80.00;;;;;;5049989;28;20195;-76
2024/02/23 00:08:54;;;;;;;0.93;0.50;;;6.50;79.70;;;;;;5050692;28;20192;-74
2024/02/23 00:11:20;;;;;;;1.93;0.70;;;6.50;80.00;;;;;;5053581;28;20477;-72
2024/02/23 00:13:46;;;;;;;1.13;0.60;;;6.60;79.60;;;;;;5048533;28;20418;-72
2024/02/23 00:16:11;;;;;;;1.40;0.50;;;6.60;79.60;;;;;;5048786;28;20411;-73
2024/02/23 00:18:38;;;;;;;0.80;0.50;;;6.60;79.60;;;;;;5040978;28;20184;-74
2024/02/23 00:21:04;;;;;;;2.33;0.70;;;6.60;79.70;;;;;;5047769;28;20205;-72
2024/02/23 00:23:29;;;;;;;1.37;0.60;;;6.60;79.30;;;;;;5027387;28;21383;-74
2024/02/23 00:25:55;;;;;;;0.70;0.50;;;6.70;79.70;;;;;;5050283;28;20462;-74
2024/02/23 00:28:21;;;;;;;2.10;0.67;;;6.60;79.50;;;;;;5041858;28;20211;-72
2024/02/23 00:30:47;;;;;;;0.60;0.30;;;6.70;79.50;;;;;;5043196;28;20486;-77
2024/02/23 00:33:13;;;;;;;0.60;0.50;;;6.70;79.20;;;;;;5042188;28;20413;-74
2024/02/23 00:35:38;;;;;;;3.60;0.70;;;6.60;79.20;;;;;;5050700;28;20192;-73
2024/02/23 00:38:04;;;;;;;0.83;0.60;;;6.70;79.60;;;;;;5044013;28;20689;-74
2024/02/23 00:40:29;;;;;;;1.57;0.60;;;6.70;79.00;;;;;;5032224;28;20204;-74
2024/02/23 00:42:55;;;;;;;0.93;0.60;;;6.70;79.30;;;;;;5041782;28;20788;-75
2024/02/23 00:45:21;;;;;;;1.23;0.53;;;6.70;79.50;;;;;;5048773;28;20181;-74
2024/02/23 00:47:47;;;;;;;0.83;0.53;;;6.70;79.20;;;;;;5049997;28;20212;-75
2024/02/23 00:50:13;;;;;;;0.90;0.50;;;6.70;79.50;;;;;;5049481;28;20565;-74
2024/02/23 00:52:40;;;;;;;1.20;0.70;;;6.70;79.00;;;;;;5039861;28;20493;-73
2024/02/23 00:55:08;;;;;;;1.03;0.60;;;6.70;79.30;;;;;;5050742;28;20422;-73
2024/02/23 00:57:35;;;;;;;1.93;0.70;;;6.70;79.30;;;;;;5050207;28;20419;-74
2024/02/23 01:00:01;;;;;;;1.57;0.60;;;6.70;79.20;;;;;;5042335;28;20566;-74
2024/02/23 01:02:27;;;;;;;1.90;0.70;;;6.80;79.00;;;;;;5048234;28;21675;-72
2024/02/23 01:04:56;;;;;;;1.10;0.73;;;6.80;78.90;;;;;;5048580;28;20204;-72
2024/02/23 01:07:22;;;;;;;5.33;0.83;;;6.80;78.40;;;;;;5044444;28;20422;-72
2024/02/23 01:09:48;;;;;;;3.17;0.63;;;6.80;78.40;;;;;;5051135;28;20481;-73
2024/02/23 01:12:13;;;;;;;1.40;0.60;;;6.80;78.40;;;;;;5043122;28;20483;-71
2024/02/23 01:14:39;;;;;;;0.97;0.67;;;6.80;78.30;;;;;;5044770;28;20263;-75
2024/02/23 01:17:05;;;;;;;5.03;0.93;;;6.80;78.30;;;;;;5045752;28;20723;-74
2024/02/23 01:19:30;;;;;;;1.00;0.57;;;6.80;78.70;;;;;;5044887;28;20187;-73
2024/02/23 01:21:59;;;;;;;2.80;0.60;;;6.80;78.70;;;;;;5043849;28;20587;-72
2024/02/23 01:24:27;;;;;;;1.27;0.50;;;6.80;78.10;;;;;;5044103;28;20213;-73
2024/02/23 01:26:54;;;;;;;5.43;1.00;;;6.80;78.40;;;;;;5043848;28;20427;-71
2024/02/23 01:29:20;;;;;;;2.20;0.90;;;6.90;78.00;;;;;;5055172;28;20421;-72
2024/02/23 01:31:45;;;;;;;2.40;0.83;;;6.90;78.00;;;;;;5045946;28;20458;-72
2024/02/23 01:34:11;;;;;;;1.60;1.10;;;6.90;77.60;;;;;;5055187;28;20231;-73
2024/02/23 01:36:37;;;;;;;4.33;1.10;;;6.90;77.30;;;;;;5046752;28;20215;-73
2024/02/23 01:39:03;;;;;;;1.80;0.80;;;6.80;77.60;;;;;;5050568;28;20256;-72
2024/02/23 01:41:29;;;;;;;1.17;0.70;;;6.80;77.30;;;;;;5046550;28;20204;-73
2024/02/23 01:43:55;;;;;;;2.57;0.83;;;6.80;77.60;;;;;;5044687;28;20460;-71
2024/02/23 01:46:21;;;;;;;1.13;0.70;;;6.80;77.70;;;;;;5044944;28;21467;-72
2024/02/23 01:48:46;;;;;;;1.33;0.80;;;6.90;77.40;;;;;;5049603;28;20180;-72
2024/02/23 01:51:12;;;;;;;3.87;0.90;;;6.80;77.30;;;;;;5025370;28;20464;-72
2024/02/23 01:53:38;;;;;;;2.10;0.90;;;6.90;77.00;;;;;;5045219;28;20184;-73
2024/02/23 01:56:05;;;;;;;2.10;0.80;;;6.90;77.10;;;;;;5050537;28;20829;-73
2024/02/23 01:58:35;;;;;;;3.90;0.90;;;6.90;77.30;;;;;;5041209;28;20216;-73
2024/02/23 02:01:01;;;;;;;2.60;0.73;;;6.90;77.40;;;;;;5047191;28;20531;-73
2024/02/23 02:03:26;;;;;;;1.50;0.83;;;6.90;77.40;;;;;;5049736;28;20604;-73
2024/02/23 02:05:53;;;;;;;4.83;0.90;;;6.90;77.60;;;;;;5039623;28;20430;-74
2024/02/23 02:08:20;;;;;;;2.70;0.90;;;6.90;77.30;;;;;;5050790;28;20715;-71
2024/02/23 02:10:47;;;;;;;3.50;0.90;;;6.90;77.70;;;;;;5045539;28;20467;-73
2024/02/23 02:13:12;;;;;;;0.90;0.70;;;6.90;77.40;;;;;;5050283;28;20820;-73
2024/02/23 02:15:38;;;;;;;1.70;1.27;;;6.90;77.40;;;;;;5050502;28;20407;-74
2024/02/23 02:18:04;;;;;;;1.20;0.87;;;6.90;77.30;;;;;;5051967;28;20209;-74
2024/02/23 02:20:33;;;;;;;2.17;0.97;;;6.90;77.40;;;;;;5051582;28;20455;-73
2024/02/23 02:22:59;;;;;;;2.43;0.90;;;6.90;77.80;;;;;;5056998;28;20474;-73
2024/02/23 02:25:24;;;;;;;1.47;1.10;;;6.90;77.10;;;;;;5055939;28;20450;-73
2024/02/23 02:27:50;;;;;;;1.80;0.80;;;6.90;77.10;;;;;;5049403;28;20521;-73
2024/02/23 02:30:16;;;;;;;3.53;0.97;;;6.80;77.30;;;;;;5043836;28;20679;-74
2024/02/23 02:32:41;;;;;;;2.70;0.90;;;6.80;77.00;;;;;;5046271;28;20705;-72
2024/02/23 02:35:07;;;;;;;3.17;0.83;;;6.80;76.70;;;;;;5040654;28;20654;-71
2024/02/23 02:37:34;;;;;;;1.00;0.70;;;6.80;76.80;;;;;;5048924;28;20184;-71
2024/02/23 02:39:59;;;;;;;1.63;1.00;;;6.80;77.00;;;;;;5049786;28;20549;-74
2024/02/23 02:42:25;;;;;;;1.00;0.60;;;6.80;77.00;;;;;;5045421;28;20891;-73
2024/02/23 02:44:51;;;;;;;1.73;0.77;;;6.80;77.10;;;;;;5041231;28;20208;-71
2024/02/23 02:47:17;;;;;;;5.23;1.23;;;6.80;76.70;;;;;;5040029;28;20280;-75
2024/02/23 02:49:42;;;;;;;5.40;0.87;;;6.80;77.00;;;;;;5048013;28;20177;-75
2024/02/23 02:52:08;;;;;;;1.80;0.90;;;6.80;77.00;;;;;;5043473;28;20678;-72
2024/02/23 02:54:34;;;;;;;1.67;0.80;;;6.70;76.20;;;;;;5046973;28;20189;-72
2024/02/23 02:56:59;;;;;;;1.63;0.77;;;6.70;76.20;;;;;;5046926;28;20496;-72
2024/02/23 02:59:25;;;;;;;1.60;0.80;;;6.70;75.90;;;;;;5050321;28;20484;-73
2024/02/23 03:01:50;;;;;;;1.17;0.70;;;6.70;76.10;;;;;;5043071;28;20200;-73
2024/02/23 03:04:16;;;;;;;3.67;1.17;;;6.70;76.10;;;;;;5043292;28;20209;-74
2024/02/23 03:06:42;;;;;;;2.80;0.90;;;6.70;75.80;;;;;;5042128;28;20272;-71
2024/02/23 03:09:07;;;;;;;2.83;0.93;;;6.70;75.80;;;;;;5047666;28;20177;-73
2024/02/23 03:11:33;;;;;;;1.10;0.70;;;6.70;75.20;;;;;;5044038;28;20254;-73
2024/02/23 03:13:59;;;;;;;2.20;0.80;;;6.70;75.10;;;;;;5042961;28;20169;-72
2024/02/23 03:16:29;;;;;;;1.73;0.70;;;6.70;74.50;;;;;;5044791;28;20935;-72
2024/02/23 03:18:54;;;;;;;4.10;1.00;;;6.70;74.30;;;;;;5049375;28;20187;-73
2024/02/23 03:21:20;;;;;;;1.60;0.80;;;6.70;74.30;;;;;;5043566;28;20451;-74
2024/02/23 03:23:46;;;;;;;4.10;0.90;;;6.70;73.90;;;;;;5046774;28;20213;-70
2024/02/23 03:26:11;;;;;;;1.63;0.70;;;6.70;73.70;;;;;;5030714;28;20287;-73
2024/02/23 03:28:37;;;;;;;1.20;0.77;;;6.70;74.30;;;;;;5057371;28;20197;-72
2024/02/23 03:31:02;;;;;;;1.20;0.70;;;6.70;74.50;;;;;;5049272;28;20282;-73
2024/02/23 03:33:28;;;;;;;3.23;0.90;;;6.70;73.20;;;;;;5056389;28;20191;-73
2024/02/23 03:35:55;;;;;;;2.70;0.87;;;6.70;71.70;;;;;;5046946;28;20188;-73
2024/02/23 03:38:20;;;;;;;2.00;0.90;;;6.60;72.30;;;;;;5051705;28;20279;-73
2024/02/23 03:40:46;;;;;;;1.53;0.70;;;6.60;72.30;;;;;;5047566;28;20450;-76
2024/02/23 03:43:12;;;;;;;4.00;0.90;;;6.70;71.10;;;;;;5053336;28;20212;-72
2024/02/23 03:45:37;;;;;;;4.17;1.10;;;6.70;71.30;;;;;;5050888;28;20181;-71
2024/02/23 03:48:04;;;;;;;2.40;1.40;;;6.70;71.00;;;;;;5053995;28;20184;-72
2024/02/23 03:50:30;;;;;;;1.87;1.10;;;6.70;70.50;;;;;;5045889;28;20209;-73
2024/02/23 03:52:56;;;;;;;2.23;1.00;;;6.60;71.10;;;;;;5053584;28;20415;-73
2024/02/23 03:55:22;;;;;;;1.87;0.90;;;6.60;71.30;;;;;;5052963;28;20560;-72
2024/02/23 03:57:48;;;;;;;3.43;1.00;;;6.70;71.60;;;;;;5054093;28;20180;-73
2024/02/23 04:00:14;;;;;;;1.10;0.77;;;6.70;71.40;;;;;;5054334;28;20403;-73
2024/02/23 04:02:40;;;;;;;4.07;1.10;;;6.70;71.10;;;;;;5045051;28;20275;-72
2024/02/23 04:05:06;;;;;;;4.23;1.43;;;6.70;70.50;;;;;;5035493;28;20423;-71
2024/02/23 04:07:31;;;;;;;1.73;0.90;;;6.70;70.40;;;;;;5055169;28;20181;-71
2024/02/23 04:09:58;;;;;;;3.80;0.93;;;6.60;70.40;;;;;;5058659;28;20479;-72
2024/02/23 04:12:23;;;;;;;1.53;0.73;;;6.60;71.10;;;;;;5052003;28;20224;-74
2024/02/23 04:14:49;;;;;;;2.00;1.03;;;6.50;69.80;;;;;;5045492;28;20420;-71
2024/02/23 04:17:15;;;;;;;1.97;0.90;;;6.50;69.80;;;;;;5050972;28;20471;-73
2024/02/23 04:19:41;;;;;;;3.17;0.80;;;6.50;69.80;;;;;;5054870;28;20191;-73
2024/02/23 04:22:09;;;;;;;3.67;0.83;;;6.50;69.90;;;;;;5042840;28;20506;-72
2024/02/23 04:24:37;;;;;;;3.27;1.03;;;6.50;69.90;;;;;;5047263;28;20508;-74
2024/02/23 04:27:04;;;;;;;1.90;1.20;;;6.40;70.20;;;;;;5049301;28;20416;-74
2024/02/23 04:29:29;;;;;;;2.57;0.90;;;6.30;70.70;;;;;;5049916;28;20411;-74
2024/02/23 04:31:55;;;;;;;2.47;0.80;;;6.30;70.70;;;;;;5047487;28;20486;-73
2024/02/23 04:34:21;;;;;;;4.20;1.10;;;6.50;69.80;;;;;;5051606;28;20188;-74
2024/02/23 04:36:46;;;;;;;2.40;0.90;;;6.40;69.70;;;;;;5041618;28;20220;-72
2024/02/23 04:39:12;;;;;;;5.07;1.23;;;6.40;70.10;;;;;;5051065;28;20234;-71
2024/02/23 04:41:38;;;;;;;2.10;0.83;;;6.40;69.70;;;;;;5047256;28;20220;-70
2024/02/23 04:44:03;;;;;;;4.40;1.27;;;6.50;69.40;;;;;;5049751;28;20212;-72
2024/02/23 04:46:30;;;;;;;2.90;1.00;;;6.40;69.80;;;;;;5048990;28;20977;-73
2024/02/23 04:48:56;;;;;;;3.30;1.13;;;6.30;69.90;;;;;;5047216;28;20638;-72
2024/02/23 04:51:23;;;;;;;1.50;0.90;;;6.30;69.50;;;;;;5043835;28;20458;-72
2024/02/23 04:53:49;;;;;;;4.93;0.93;;;6.20;69.70;;;;;;5028131;28;20173;-72
2024/02/23 04:56:15;;;;;;;1.97;0.70;;;6.30;69.50;;;;;;5048317;28;20498;-72
2024/02/23 04:58:42;;;;;;;1.20;0.90;;;6.30;69.10;;;;;;5052307;28;20549;-74
2024/02/23 05:01:08;;;;;;;4.13;0.80;;;6.30;69.20;;;;;;5048042;28;20224;-72
2024/02/23 05:03:33;;;;;;;3.73;0.90;;;6.30;69.10;;;;;;5040777;28;20494;-72
2024/02/23 05:05:59;;;;;;;3.07;0.80;;;6.30;69.10;;;;;;5046745;28;20181;-73
2024/02/23 05:08:26;;;;;;;2.43;1.00;;;6.30;69.40;;;;;;5053471;28;20181;-74
2024/02/23 05:10:52;;;;;;;2.80;0.97;;;6.20;69.70;;;;;;5050487;28;20232;-72
2024/02/23 05:13:17;;;;;;;2.70;1.13;;;6.20;69.90;;;;;;5053398;28;20434;-75
2024/02/23 05:15:43;;;;;;;3.53;1.23;;;6.20;69.50;;;;;;5052493;28;20989;-72
2024/02/23 05:18:08;;;;;;;3.90;0.80;;;6.20;69.50;;;;;;5050071;28;20230;-72
2024/02/23 05:20:34;;;;;;;3.27;1.20;;;6.20;69.80;;;;;;5045637;28;20219;-72
2024/02/23 05:23:00;;;;;;;1.77;0.90;;;6.10;70.20;;;;;;5044876;28;20270;-73
2024/02/23 05:25:26;;;;;;;6.73;1.03;;;6.10;70.20;;;;;;5049680;28;20268;-73
2024/02/23 05:27:52;;;;;;;5.80;0.97;;;6.10;70.20;;;;;;5045588;28;20995;-72
2024/02/23 05:30:18;;;;;;;5.60;2.17;;;6.10;70.20;;;;;;5046216;28;20501;-74
2024/02/23 05:32:43;;;;;;;1.20;0.73;;;6.00;70.20;;;;;;5046163;28;20685;-72
2024/02/23 05:35:09;;;;;;;1.60;0.90;;;6.00;70.40;;;;;;5054781;28;20681;-73
2024/02/23 05:37:36;;;;;;;3.23;1.40;;;6.00;70.70;;;;;;5052790;28;20226;-73
2024/02/23 05:40:06;;;;;;;1.90;1.00;;;6.00;70.40;;;;;;5049957;28;20272;-71
2024/02/23 05:42:32;;;;;;;5.00;1.00;;;5.90;70.80;;;;;;5042705;28;20439;-73
2024/02/23 05:44:58;;;;;;;2.70;1.00;;;5.90;71.00;;;;;;5049963;28;20485;-72
2024/02/23 05:47:23;;;;;;;1.40;0.77;;;5.90;71.00;;;;;;5049619;28;20987;-73
2024/02/23 05:49:50;;;;;;;4.20;0.90;;;5.80;71.40;;;;;;5048555;28;20276;-70
2024/02/23 05:52:16;;;;;;;1.80;1.00;;;5.90;71.60;;;;;;5047143;28;20251;-73
2024/02/23 05:54:42;;;;;;;2.13;0.90;;;5.90;71.10;;;;;;5046445;28;20859;-73
2024/02/23 05:57:08;;;;;;;3.07;0.80;;;5.80;71.30;;;;;;5048275;28;20196;-72
2024/02/23 05:59:33;;;;;;;2.00;1.00;;;5.80;71.30;;;;;;5049715;28;20190;-73
2024/02/23 06:01:59;;;;;;;4.80;1.00;;;5.90;71.30;;;;;;5043135;28;20492;-73
2024/02/23 06:04:25;;;;;;;2.67;1.10;;;5.80;71.30;;;;;;5043260;28;20215;-74
2024/02/23 06:06:51;;;;;;;4.30;1.10;;;5.80;71.60;;;;;;5050113;28;20184;-73
2024/02/23 06:09:16;;;;;;;5.13;1.37;;;5.90;71.60;;;;;;5048648;28;20432;-74
2024/02/23 06:11:42;;;;;;;1.57;1.07;;;5.90;72.30;;;;;;5047886;28;20200;-73
2024/02/23 06:14:08;;;;;;;3.57;1.20;;;5.90;72.90;;;;;;5044413;28;20192;-71
2024/02/23 06:16:34;;;;;;;1.97;0.90;;;5.90;73.70;;;;;;5054315;28;20576;-72
2024/02/23 06:19:00;;;;;;;6.90;1.20;;;5.90;74.00;;;;;;5041848;28;20427;-73
2024/02/23 06:21:26;;;;;;;3.43;1.10;;;5.90;73.70;;;;;;5035509;28;20205;-74
2024/02/23 06:23:51;;;;;;;3.63;1.27;;;5.90;74.90;;;;;;5045346;28;20471;-75
2024/02/23 06:26:17;;;;;;;4.23;0.90;;;6.00;75.20;;;;;;5047736;28;20188;-76
2024/02/23 06:28:43;;;;;;;5.00;1.20;;;6.00;75.40;;;;;;5048432;28;20744;-72
2024/02/23 06:31:09;;;;;;;2.40;1.00;;;6.10;75.40;;;;;;5024186;28;20216;-73
2024/02/23 06:33:35;;;;;;;7.73;1.00;;;6.10;75.40;;;;;;5040841;28;20196;-74
2024/02/23 06:36:01;;;;;;;2.03;1.30;;;6.10;75.70;;;;;;5045566;28;20621;-74
2024/02/23 06:38:30;;;;;;;1.20;1.00;;;6.00;76.10;;;;;;5048418;28;20423;-73
2024/02/23 06:40:56;;;;;;;1.73;1.43;;;6.00;76.50;;;;;;5048803;28;20485;-74
2024/02/23 06:43:22;;;;;;;2.90;1.00;;;6.00;77.10;;;;;;5049985;28;20469;-75
2024/02/23 06:45:47;;;;;;;1.40;1.00;;;6.00;77.40;;;;;;5043988;28;20411;-75
2024/02/23 06:48:13;;;;;;;3.20;1.20;;;6.00;77.70;;;;;;5051157;28;20504;-75
2024/02/23 06:50:39;;;;;;;7.20;1.50;;;6.00;77.80;;;;;;5047574;28;20215;-74
2024/02/23 06:53:06;;;;;;;5.67;1.60;;;6.00;77.60;;;;;;5050258;28;20180;-76
2024/02/23 06:55:34;;;;;;;2.80;1.10;;;6.00;77.60;;;;;;5048493;28;20510;-75
2024/02/23 06:57:59;;;;;;;2.70;1.17;;;5.90;77.40;;;;;;5048979;28;20535;-73
2024/02/23 07:00:25;;;;;;;3.00;1.40;;;5.90;77.30;;;;;;5050087;28;20557;-74
2024/02/23 07:02:51;;;;;;;2.80;0.90;;;6.00;77.00;;;;;;5042767;28;20238;-72
2024/02/23 07:05:16;;;;;;;31.07;3.30;;;6.00;77.10;;;;;;5053076;28;20183;-73
2024/02/23 07:07:42;;;;;;;19.87;3.13;;;6.00;77.10;;;;;;5053304;28;20506;-72
2024/02/23 07:10:08;;;;;;;5.97;1.50;;;6.00;77.10;;;;;;5053966;28;20585;-70
2024/02/23 07:12:35;;;;;;;3.90;1.50;;;5.90;77.30;;;;;;5043977;28;20728;-71
2024/02/23 07:15:01;;;;;;;7.60;1.80;;;5.90;77.70;;;;;;5045829;28;20423;-72
2024/02/23 07:17:28;;;;;;;6.87;1.67;;;6.00;78.00;;;;;;5052762;28;20847;-74
2024/02/23 07:19:53;;;;;;;6.40;2.30;;;5.90;77.80;;;;;;5050517;28;20506;-72
2024/02/23 07:22:20;;;;;;;12.03;2.20;;;6.00;78.00;;;;;;5050172;28;20633;-71
2024/02/23 07:24:45;;;;;;;15.17;1.90;;;6.00;77.80;;;;;;5047620;28;20727;-73
2024/02/23 07:27:11;;;;;;;9.40;2.00;;;6.00;77.70;;;;;;5050810;28;20438;-73
2024/02/23 07:29:37;;;;;;;9.20;2.20;;;6.00;77.60;;;;;;5053512;28;20196;-71
2024/02/23 07:32:02;;;;;;;6.03;1.60;;;5.90;77.70;;;;;;5049602;28;20315;-71
2024/02/23 07:34:29;;;;;;;7.00;1.93;;;5.90;78.00;;;;;;5050702;28;20185;-72
2024/02/23 07:36:56;;;;;;;7.53;1.70;;;6.00;78.00;;;;;;5056758;28;20266;-71
2024/02/23 07:39:22;;;;;;;3.90;1.17;;;6.00;77.60;;;;;;5053322;28;21054;-73
2024/02/23 07:41:47;;;;;;;2.57;1.30;;;6.00;77.40;;;;;;5052450;28;20215;-73
2024/02/23 07:44:13;;;;;;;2.60;1.40;;;6.00;76.80;;;;;;5052720;28;20486;-71
2024/02/23 07:46:39;;;;;;;2.03;1.10;;;6.00;76.80;;;;;;5054338;28;20191;-74
2024/02/23 07:49:06;;;;;;;3.50;1.17;;;6.00;77.10;;;;;;5051238;28;20188;-72
2024/02/23 07:51:32;;;;;;;3.10;1.57;;;6.10;77.00;;;;;;5050286;28;20228;-72
2024/02/23 07:53:58;;;;;;;2.27;1.10;;;6.10;76.10;;;;;;5043922;28;20958;-72
2024/02/23 07:56:23;;;;;;;1.90;1.40;;;6.10;76.10;;;;;;5054370;28;20434;-73
2024/02/23 07:58:49;;;;;;;1.63;1.10;;;6.10;75.90;;;;;;5053692;28;20510;-75
2024/02/23 08:01:15;;;;;;;2.50;1.60;;;6.10;75.70;;;;;;5043184;28;20201;-71
2024/02/23 08:03:41;;;;;;;2.87;1.63;;;6.00;75.70;;;;;;5043597;28;20838;-71
2024/02/23 08:06:07;;;;;;;5.90;1.67;;;6.10;75.50;;;;;;5046494;28;20181;-71
2024/02/23 08:08:34;;;;;;;8.10;1.60;;;6.00;75.50;;;;;;5049995;28;20421;-72
2024/02/23 08:11:03;;;;;;;6.00;1.50;;;6.10;75.50;;;;;;5051855;28;20214;-72
2024/02/23 08:13:29;;;;;;;3.47;1.33;;;6.10;75.50;;;;;;5048865;28;20922;-71
2024/02/23 08:15:55;;;;;;;3.07;1.40;;;6.00;75.20;;;;;;5037500;28;21163;-73
2024/02/23 08:18:22;;;;;;;17.10;2.90;;;6.00;75.50;;;;;;5051095;28;20495;-71
2024/02/23 08:20:48;;;;;;;5.07;2.07;;;5.90;75.50;;;;;;5053155;28;20545;-73
2024/02/23 08:23:14;;;;;;;7.60;1.40;;;5.90;75.80;;;;;;5063170;28;20544;-71
2024/02/23 08:25:39;;;;;;;4.77;1.37;;;5.90;75.90;;;;;;5051348;28;20187;-72
2024/02/23 08:28:05;;;;;;;5.90;1.43;;;5.90;75.80;;;;;;5050554;28;20226;-71
2024/02/23 08:30:31;;;;;;;4.03;2.00;;;6.00;75.70;;;;;;5042819;28;20224;-72
2024/02/23 08:32:57;;;;;;;4.90;1.50;;;6.00;75.20;;;;;;5050350;28;20986;-72
2024/02/23 08:35:22;;;;;;;3.60;1.90;;;6.00;74.60;;;;;;5044444;28;20181;-72
2024/02/23 08:37:48;;;;;;;2.83;1.20;;;6.00;74.50;;;;;;5054683;28;20173;-71
2024/02/23 08:40:13;;;;;;;1.73;1.30;;;6.00;74.30;;;;;;5054529;28;20188;-73
2024/02/23 08:42:39;;;;;;;2.00;1.40;;;6.00;74.50;;;;;;5051571;28;20654;-73
2024/02/23 08:45:05;;;;;;;5.13;1.37;;;6.00;74.30;;;;;;5048900;28;20209;-72
2024/02/23 08:47:35;;;;;;;4.23;1.73;;;5.90;74.20;;;;;;5050119;28;20260;-71
2024/02/23 08:50:01;;;;;;;9.40;1.40;;;6.00;73.70;;;;;;5052588;28;20426;-70
2024/02/23 08:52:27;;;;;;;2.87;1.43;;;6.00;73.90;;;;;;5047529;28;20504;-71
2024/02/23 08:54:52;;;;;;;2.17;1.20;;;5.90;72.90;;;;;;5030722;28;20832;-72
2024/02/23 08:57:19;;;;;;;4.90;1.50;;;5.90;73.00;;;;;;5055747;28;20184;-73
2024/02/23 08:59:46;;;;;;;4.00;1.30;;;6.00;73.00;;;;;;5057649;28;20196;-74
2024/02/23 09:02:12;;;;;;;3.90;1.33;;;6.00;72.60;;;;;;5049038;28;20470;-71
2024/02/23 09:04:38;;;;;;;16.43;2.00;;;6.10;72.40;;;;;;5053707;28;20511;-72
2024/02/23 09:07:03;;;;;;;5.37;1.70;;;6.10;72.30;;;;;;5058561;28;20176;-73
2024/02/23 09:09:29;;;;;;;4.70;1.67;;;6.20;71.70;;;;;;5059155;28;20188;-69
2024/02/23 09:11:55;;;;;;;6.30;1.20;;;6.10;71.30;;;;;;5049520;28;20268;-73
2024/02/23 09:14:21;;;;;;;3.30;1.73;;;6.10;71.30;;;;;;5050376;28;20973;-71
2024/02/23 09:16:47;;;;;;;3.40;1.30;;;6.00;71.40;;;;;;5050233;28;20180;-73
2024/02/23 09:19:13;;;;;;;2.70;1.43;;;6.10;71.10;;;;;;5048097;28;20600;-73
2024/02/23 09:21:38;;;;;;;4.97;1.37;;;6.10;71.10;;;;;;5030804;28;20459;-74
2024/02/23 09:24:04;;;;;;;6.40;1.90;;;6.10;71.10;;;;;;5043491;28;20216;-73
2024/02/23 09:26:31;;;;;;;8.40;1.70;;;6.10;70.80;;;;;;5051647;28;20552;-73
2024/02/23 09:28:56;;;;;;;2.70;1.27;;;6.10;71.10;;;;;;5046103;28;20439;-73
2024/02/23 09:31:22;;;;;;;2.40;1.27;;;6.10;70.80;;;;;;5045078;28;20498;-71
2024/02/23 09:33:50;;;;;;;3.13;1.23;;;6.10;71.00;;;;;;5045131;28;20188;-73
2024/02/23 09:36:16;;;;;;;5.10;1.13;;;6.20;70.80;;;;;;5051694;28;20227;-70
2024/02/23 09:38:42;;;;;;;5.63;1.33;;;6.20;70.40;;;;;;5051252;28;20542;-72
2024/02/23 09:41:17;;;;;;;3.77;1.10;;;6.30;70.50;;;;;;5043021;28;20827;-71
2024/02/23 09:43:46;;;;;;;3.00;1.30;;;6.30;69.80;;;;;;5045619;28;20204;-71
2024/02/23 09:46:12;;;;;;;5.10;1.03;;;6.30;69.50;;;;;;5053222;28;20423;-72
2024/02/23 09:48:38;;;;;;;1.73;0.90;;;6.30;69.50;;;;;;5049022;28;20785;-72
2024/02/23 09:51:05;;;;;;;9.33;1.83;;;6.20;69.20;;;;;;5049484;28;20538;-71
2024/02/23 09:53:31;;;;;;;5.10;1.83;;;6.20;69.50;;;;;;5030691;28;20522;-72
2024/02/23 09:55:59;;;;;;;2.87;1.53;;;6.30;69.40;;;;;;5051041;28;20447;-73
2024/02/23 09:58:29;;;;;;;3.50;1.03;;;6.30;69.10;;;;;;5048319;28;20234;-73
2024/02/23 10:00:58;;;;;;;2.20;1.10;;;6.40;68.60;;;;;;5048139;28;20856;-74
2024/02/23 10:03:30;;;;;;;6.10;1.40;;;6.60;68.60;;;;;;5051111;28;20828;-73
2024/02/23 10:06:01;;;;;;;7.83;1.37;;;6.80;68.30;;;;;;5046147;28;20506;-72
2024/02/23 10:08:29;;;;;;;4.33;1.10;;;7.00;68.00;;;;;;5052449;28;20407;-71
2024/02/23 10:10:56;;;;;;;7.50;1.30;;;7.20;67.90;;;;;;5042954;28;21073;-73
2024/02/23 10:13:25;;;;;;;4.57;1.20;;;7.30;67.60;;;;;;5047209;28;20427;-73
2024/02/23 10:15:52;;;;;;;9.93;1.60;;;7.40;67.30;;;;;;5047819;28;20870;-72
2024/02/23 10:18:17;;;;;;;9.07;1.97;;;7.40;67.30;;;;;;5047420;28;20793;-71
2024/02/23 10:20:43;;;;;;;6.10;1.90;;;7.40;67.30;;;;;;5046596;28;20452;-71
2024/02/23 10:23:09;;;;;;;6.23;1.57;;;7.30;67.20;;;;;;5051746;28;20212;-73
2024/02/23 10:25:36;;;;;;;5.53;1.33;;;7.30;66.40;;;;;;5047931;28;20204;-73
2024/02/23 10:28:02;;;;;;;6.80;1.50;;;7.40;67.20;;;;;;5044493;28;20423;-70
2024/02/23 10:30:28;;;;;;;3.80;1.30;;;7.50;66.30;;;;;;5053167;28;20443;-71
2024/02/23 10:32:56;;;;;;;12.87;2.50;;;7.50;66.10;;;;;;5042426;28;20420;-72
2024/02/23 10:35:23;;;;;;;5.30;1.10;;;7.70;66.90;;;;;;5052668;28;20176;-74
2024/02/23 10:37:50;;;;;;;5.40;1.30;;;8.00;66.00;;;;;;5058428;28;21122;-71
2024/02/23 10:40:18;;;;;;;4.10;1.40;;;7.90;65.30;;;;;;5060254;28;20411;-71
2024/02/23 10:42:51;;;;;;;2.53;1.33;;;7.70;65.60;;;;;;5038145;28;20813;-72
2024/02/23 10:45:18;;;;;;;11.53;2.80;;;7.70;66.60;;;;;;5049940;28;20476;-71
2024/02/23 10:47:44;;;;;;;4.40;1.40;;;7.80;65.80;;;;;;5050498;28;21079;-71
2024/02/23 10:50:14;;;;;;;3.10;1.20;;;7.90;65.60;;;;;;5048225;28;20415;-72
2024/02/23 10:52:41;;;;;;;6.60;1.53;;;8.10;65.40;;;;;;5049072;28;20470;-71
2024/02/23 10:55:08;;;;;;;2.10;1.17;;;8.00;64.80;;;;;;5051996;28;20541;-73
2024/02/23 10:57:38;;;;;;;5.30;1.30;;;8.00;65.10;;;;;;5031523;28;20427;-71
2024/02/23 11:00:15;;;;;;;2.77;1.30;;;7.90;65.10;;;;;;5029223;28;20657;-72
2024/02/23 11:02:46;;;;;;;3.67;1.30;;;7.90;65.60;;;;;;5045752;28;20447;-70
2024/02/23 11:05:33;;;;;;;3.30;1.13;;;7.90;65.10;;;;;;5049685;28;20714;-73
2024/02/23 11:07:59;;;;;;;2.87;1.40;;;8.00;65.60;;;;;;5049444;28;20411;-72
2024/02/23 11:10:27;;;;;;;2.77;1.10;;;8.00;64.80;;;;;;5050959;28;20501;-72
2024/02/23 11:13:00;;;;;;;5.30;1.50;;;8.00;64.80;;;;;;5051688;28;20435;-73
2024/02/23 11:15:33;;;;;;;2.97;1.23;;;8.10;64.80;;;;;;5050842;28;20439;-72
2024/02/23 11:18:00;;;;;;;6.70;1.43;;;8.20;64.70;;;;;;5048052;28;20966;-72
2024/02/23 11:20:34;;;;;;;8.47;1.43;;;8.20;64.80;;;;;;5047021;28;21292;-73
2024/02/23 11:23:00;;;;;;;4.30;1.30;;;8.10;65.10;;;;;;5047222;28;20434;-72
2024/02/23 11:25:29;;;;;;;6.73;1.70;;;8.10;65.70;;;;;;5046915;28;20423;-73
2024/02/23 11:27:55;;;;;;;4.40;1.27;;;8.20;66.00;;;;;;5049880;28;20439;-73
2024/02/23 11:30:20;;;;;;;4.03;0.97;;;8.40;65.60;;;;;;5022101;28;20477;-71
2024/02/23 11:32:48;;;;;;;4.57;1.40;;;8.40;65.70;;;;;;5046661;28;20254;-71
2024/02/23 11:35:21;;;;;;;4.40;1.40;;;8.30;65.40;;;;;;5048237;28;20236;-72
2024/02/23 11:37:58;;;;;;;5.93;1.57;;;8.40;65.60;;;;;;5051873;28;20450;-72
2024/02/23 11:40:28;;;;;;;2.30;1.17;;;8.40;65.70;;;;;;5053310;28;20494;-73
2024/02/23 11:42:59;;;;;;;5.10;1.33;;;8.40;65.30;;;;;;5052630;28;20808;-71
2024/02/23 11:45:25;;;;;;;2.83;1.10;;;8.40;65.30;;;;;;5054278;28;20419;-72
2024/02/23 11:47:51;;;;;;;5.23;1.40;;;8.40;65.30;;;;;;5052344;28;20418;-72
2024/02/23 11:50:19;;;;;;;5.37;1.93;;;8.40;65.70;;;;;;5052250;28;20267;-74
2024/02/23 11:52:45;;;;;;;3.47;1.40;;;8.50;65.80;;;;;;5044751;28;20459;-73
2024/02/23 11:55:11;;;;;;;4.13;1.20;;;8.60;65.40;;;;;;5049654;28;20447;-72
2024/02/23 11:57:38;;;;;;;2.27;1.20;;;8.80;65.00;;;;;;5053066;28;20905;-71
2024/02/23 12:00:06;;;;;;;2.30;1.30;;;8.80;64.80;;;;;;5053515;28;20199;-71
2024/02/23 12:02:35;;;;;;;4.20;1.20;;;8.80;64.50;;;;;;5041988;28;20803;-73
2024/02/23 12:05:01;;;;;;;3.40;1.37;;;8.70;64.80;;;;;;5051037;28;20489;-72
2024/02/23 12:07:30;;;;;;;4.47;1.40;;;8.60;65.10;;;;;;5048201;28;20431;-72
2024/02/23 12:09:56;;;;;;;2.67;1.13;;;8.60;65.30;;;;;;5046379;28;20755;-73
2024/02/23 12:12:23;;;;;;;3.90;1.27;;;8.60;65.10;;;;;;5045389;28;20477;-72
2024/02/23 12:14:49;;;;;;;2.77;1.30;;;8.80;65.30;;;;;;5044843;28;20446;-73
2024/02/23 12:17:14;;;;;;;4.90;1.30;;;8.80;65.10;;;;;;5049885;28;20427;-72
2024/02/23 12:19:41;;;;;;;4.37;1.57;;;9.00;64.70;;;;;;5052052;28;20382;-73
2024/02/23 12:22:07;;;;;;;3.97;1.40;;;9.00;64.70;;;;;;5044043;28;20991;-73
2024/02/23 12:24:33;;;;;;;17.70;3.13;;;8.90;64.70;;;;;;5053008;28;20471;-72
2024/02/23 12:26:59;;;;;;;6.63;1.63;;;9.00;65.10;;;;;;5050553;28;20670;-73
2024/02/23 12:29:25;;;;;;;8.60;1.60;;;9.00;64.50;;;;;;5049668;28;20924;-71
2024/02/23 12:31:52;;;;;;;5.30;1.50;;;9.10;64.40;;;;;;5042987;28;20221;-74
2024/02/23 12:34:20;;;;;;;5.90;1.30;;;9.00;64.20;;;;;;5055155;28;20657;-73
2024/02/23 12:36:46;;;;;;;5.40;1.73;;;8.90;64.40;;;;;;5060891;28;20415;-73
2024/02/23 12:39:12;;;;;;;7.27;1.70;;;8.90;64.50;;;;;;5050555;28;20530;-73
2024/02/23 12:41:38;;;;;;;11.00;1.93;;;9.10;64.70;;;;;;5045499;28;20216;-72
2024/02/23 12:44:03;;;;;;;6.90;1.80;;;9.30;64.40;;;;;;5049202;28;20458;-72
2024/02/23 12:46:29;;;;;;;2.23;1.20;;;9.50;64.10;;;;;;5055545;28;20504;-73
2024/02/23 12:48:54;;;;;;;6.20;1.50;;;9.70;63.80;;;;;;5050959;28;20204;-72
2024/02/23 12:51:25;;;;;;;5.83;1.43;;;9.70;63.10;;;;;;5047514;28;20207;-71
2024/02/23 12:53:51;;;;;;;3.47;1.67;;;9.50;62.60;;;;;;5043113;28;20180;-72